Time;durP1;ratioP1;P1;durP2;ratioP2;P2;SDS_P1;SDS_P2;PMS_P1;PMS_P2;Temp;Humidity;BMP_temperature;BMP_pressure;BME280_temperature;BME280_humidity;BME280_pressure;Samples;Min_cycle;Max_cycle;Signal;HPM_P1;HPM_P2
2022/12/04 00:02:14;;;;;;;25.13;11.05;;;;;;;;;;4967975;28;20058;-79
2022/12/04 00:04:40;;;;;;;26.17;12.32;;;;;;;;;;4953587;28;20320;-82
2022/12/04 00:07:07;;;;;;;27.27;12.43;;;;;;;;;;4955672;28;20074;-81
2022/12/04 00:09:33;;;;;;;27.33;11.45;;;;;;;;;;4954767;28;20086;-81
2022/12/04 00:11:59;;;;;;;27.75;12.02;;;;;;;;;;4953404;28;20059;-81
2022/12/04 00:14:26;;;;;;;26.88;12.50;;;;;;;;;;4963204;28;20047;-81
2022/12/04 00:16:52;;;;;;;30.10;11.85;;;;;;;;;;4956465;29;20077;-80
2022/12/04 00:19:19;;;;;;;28.92;13.40;;;;;;;;;;4961861;28;20043;-80
2022/12/04 00:21:45;;;;;;;30.02;13.57;;;;;;;;;;4968320;28;20238;-78
2022/12/04 00:24:11;;;;;;;30.70;12.93;;;;;;;;;;4985948;28;20095;-81
2022/12/04 00:26:41;;;;;;;24.85;12.02;;;;;;;;;;4972118;28;20051;-81
2022/12/04 00:29:07;;;;;;;26.90;11.88;;;;;;;;;;4954001;28;20600;-82
2022/12/04 00:31:33;;;;;;;25.90;12.13;;;;;;;;;;4955400;28;20054;-83
2022/12/04 00:34:00;;;;;;;26.10;12.20;;;;;;;;;;4955504;28;20381;-82
2022/12/04 00:36:28;;;;;;;30.05;12.73;;;;;;;;;;4955828;28;20055;-83
2022/12/04 00:38:54;;;;;;;33.00;13.18;;;;;;;;;;4964805;28;20289;-84
2022/12/04 00:41:22;;;;;;;31.95;14.05;;;;;;;;;;4972194;28;20055;-84
2022/12/04 00:43:49;;;;;;;33.85;14.55;;;;;;;;;;4955506;28;20608;-82
2022/12/04 00:46:16;;;;;;;30.92;13.38;;;;;;;;;;4953914;29;20054;-83
2022/12/04 00:48:42;;;;;;;33.25;13.90;;;;;;;;;;4971092;28;20457;-81
2022/12/04 00:51:11;;;;;;;34.30;15.20;;;;;;;;;;4953207;29;20050;-83
2022/12/04 00:53:38;;;;;;;36.92;15.07;;;;;;;;;;4955540;28;20052;-83
2022/12/04 00:56:05;;;;;;;35.78;15.70;;;;;;;;;;4954324;28;20852;-83
2022/12/04 00:58:31;;;;;;;36.55;15.45;;;;;;;;;;4955517;28;20051;-84
2022/12/04 01:01:03;;;;;;;47.08;16.48;;;;;;;;;;4955508;28;20094;-83
2022/12/04 01:03:29;;;;;;;38.33;16.20;;;;;;;;;;4953343;28;20093;-83
2022/12/04 01:05:56;;;;;;;38.30;16.27;;;;;;;;;;4954569;28;20463;-83
2022/12/04 01:08:25;;;;;;;39.67;16.75;;;;;;;;;;4954989;28;20051;-83
2022/12/04 01:10:51;;;;;;;35.03;16.30;;;;;;;;;;4953627;28;20050;-83
2022/12/04 01:13:17;;;;;;;39.17;16.33;;;;;;;;;;4967781;28;20063;-82
2022/12/04 01:15:50;;;;;;;44.15;18.15;;;;;;;;;;4955223;28;20396;-82
2022/12/04 01:18:16;;;;;;;47.47;18.38;;;;;;;;;;4963508;28;20055;-84
2022/12/04 01:20:47;;;;;;;43.88;18.10;;;;;;;;;;4954101;29;20061;-81
2022/12/04 01:23:16;;;;;;;43.75;17.70;;;;;;;;;;4952075;29;20110;-82
2022/12/04 01:25:56;;;;;;;43.70;17.85;;;;;;;;;;4954447;28;20607;-81
2022/12/04 01:28:23;;;;;;;39.50;15.95;;;;;;;;;;4953654;29;20484;-82
2022/12/04 01:30:59;;;;;;;41.88;18.25;;;;;;;;;;4955004;29;20503;-81
2022/12/04 01:33:26;;;;;;;42.63;18.40;;;;;;;;;;4953508;28;20106;-82
2022/12/04 01:35:54;;;;;;;44.45;18.23;;;;;;;;;;4958524;29;20047;-81
2022/12/04 01:38:23;;;;;;;39.95;16.95;;;;;;;;;;4953021;29;20066;-81
2022/12/04 01:40:52;;;;;;;47.13;18.15;;;;;;;;;;4955324;29;20171;-81
2022/12/04 01:43:19;;;;;;;43.13;17.85;;;;;;;;;;4946634;29;20057;-84
2022/12/04 01:45:50;;;;;;;44.40;17.88;;;;;;;;;;4956939;28;20124;-83
2022/12/04 01:48:22;;;;;;;47.53;19.10;;;;;;;;;;4958423;28;20089;-84
2022/12/04 01:50:50;;;;;;;52.47;18.88;;;;;;;;;;4955188;29;20055;-85
2022/12/04 01:53:17;;;;;;;46.78;19.35;;;;;;;;;;4957916;29;20134;-82
2022/12/04 01:55:44;;;;;;;53.10;19.75;;;;;;;;;;4986082;28;20114;-84
2022/12/04 01:58:11;;;;;;;49.53;19.67;;;;;;;;;;4968663;29;20391;-83
2022/12/04 02:00:37;;;;;;;51.55;19.77;;;;;;;;;;4953928;29;20043;-82
2022/12/04 02:03:04;;;;;;;51.08;19.55;;;;;;;;;;4952099;29;20051;-83
2022/12/04 02:05:30;;;;;;;54.72;20.52;;;;;;;;;;4953197;29;20122;-83
2022/12/04 02:08:01;;;;;;;60.03;19.55;;;;;;;;;;4952959;28;20062;-81
2022/12/04 02:10:33;;;;;;;54.92;19.95;;;;;;;;;;4968150;28;20277;-81
2022/12/04 02:13:05;;;;;;;54.20;19.52;;;;;;;;;;4953515;29;20047;-85
2022/12/04 02:15:48;;;;;;;58.10;20.63;;;;;;;;;;4954650;29;20065;-83
2022/12/04 02:18:36;;;;;;;52.10;20.23;;;;;;;;;;4955680;29;20393;-81
2022/12/04 02:21:02;;;;;;;52.40;19.55;;;;;;;;;;4952573;28;20063;-83
2022/12/04 02:23:44;;;;;;;55.22;21.08;;;;;;;;;;4952446;29;20078;-83
2022/12/04 02:26:25;;;;;;;56.40;20.88;;;;;;;;;;4952244;28;20063;-83
2022/12/04 02:29:10;;;;;;;63.58;22.27;;;;;;;;;;4952856;28;20062;-82
2022/12/04 02:31:40;;;;;;;57.78;21.02;;;;;;;;;;4953853;28;20043;-82
2022/12/04 02:34:15;;;;;;;64.50;21.63;;;;;;;;;;4953963;29;20059;-82
2022/12/04 02:36:46;;;;;;;59.63;21.00;;;;;;;;;;4955841;28;20580;-82
2022/12/04 02:39:32;;;;;;;57.72;21.17;;;;;;;;;;4957217;29;20302;-82
2022/12/04 02:42:06;;;;;;;62.03;21.17;;;;;;;;;;4959812;28;20484;-82
2022/12/04 02:44:35;;;;;;;59.33;20.70;;;;;;;;;;4955148;29;20173;-82
2022/12/04 02:47:05;;;;;;;63.05;22.13;;;;;;;;;;4956568;29;20085;-83
2022/12/04 02:49:35;;;;;;;63.53;23.48;;;;;;;;;;4956363;29;20051;-81
2022/12/04 02:52:05;;;;;;;67.45;22.60;;;;;;;;;;4955619;29;20047;-79
2022/12/04 02:54:38;;;;;;;64.50;22.33;;;;;;;;;;4955539;29;20062;-80
2022/12/04 02:57:07;;;;;;;66.05;22.52;;;;;;;;;;4955646;29;20547;-82
2022/12/04 02:59:35;;;;;;;69.88;24.25;;;;;;;;;;4956615;29;20089;-83
2022/12/04 03:02:06;;;;;;;66.80;22.58;;;;;;;;;;4956906;29;20142;-83
2022/12/04 03:04:33;;;;;;;70.07;24.83;;;;;;;;;;4957110;29;20047;-81
2022/12/04 03:07:02;;;;;;;66.35;23.00;;;;;;;;;;4955075;29;20051;-81
2022/12/04 03:09:29;;;;;;;67.97;24.10;;;;;;;;;;4955710;29;20051;-81
2022/12/04 03:11:57;;;;;;;73.00;23.73;;;;;;;;;;4955645;29;20054;-82
2022/12/04 03:14:33;;;;;;;68.70;24.00;;;;;;;;;;4954846;29;20500;-82
2022/12/04 03:17:05;;;;;;;71.65;23.25;;;;;;;;;;4955797;29;20047;-81
2022/12/04 03:19:40;;;;;;;70.22;23.67;;;;;;;;;;4954957;29;20467;-82
2022/12/04 03:22:11;;;;;;;56.73;18.03;;;;;;;;;;4955579;29;20054;-82
2022/12/04 03:24:41;;;;;;;73.47;24.65;;;;;;;;;;4954723;29;20055;-82
2022/12/04 03:27:17;;;;;;;72.72;24.25;;;;;;;;;;4957339;29;20118;-81
2022/12/04 03:29:54;;;;;;;74.97;23.65;;;;;;;;;;4957989;28;20301;-82
2022/12/04 03:32:25;;;;;;;73.88;23.38;;;;;;;;;;4957717;28;20457;-82
2022/12/04 03:35:06;;;;;;;73.72;24.02;;;;;;;;;;4959214;29;20075;-81
2022/12/04 03:37:36;;;;;;;69.45;23.50;;;;;;;;;;4958524;29;20062;-82
2022/12/04 03:40:25;;;;;;;80.63;24.30;;;;;;;;;;4955274;29;20059;-83
2022/12/04 03:42:58;;;;;;;74.35;24.45;;;;;;;;;;4949085;29;20047;-82
2022/12/04 03:45:27;;;;;;;72.95;24.05;;;;;;;;;;4955223;28;20066;-79
2022/12/04 03:48:09;;;;;;;73.80;24.80;;;;;;;;;;4971082;28;20057;-82
2022/12/04 03:50:44;;;;;;;83.25;24.63;;;;;;;;;;4955220;29;20047;-82
2022/12/04 03:53:31;;;;;;;76.45;26.40;;;;;;;;;;4954868;28;20047;-82
2022/12/04 03:56:01;;;;;;;65.10;22.98;;;;;;;;;;4955517;28;20083;-81
2022/12/04 03:58:29;;;;;;;70.47;23.88;;;;;;;;;;4955348;28;20055;-81
2022/12/04 04:00:57;;;;;;;77.18;24.60;;;;;;;;;;4956227;28;20091;-81
2022/12/04 04:03:35;;;;;;;67.55;23.10;;;;;;;;;;4956565;28;20423;-82
2022/12/04 04:06:06;;;;;;;68.90;23.38;;;;;;;;;;4956032;28;20069;-81
2022/12/04 04:08:34;;;;;;;83.28;25.83;;;;;;;;;;4956185;29;20047;-82
2022/12/04 04:11:12;;;;;;;70.50;24.23;;;;;;;;;;4954267;28;20047;-82
2022/12/04 04:24:56;;;;;;;75.85;25.08;;;;;;;;;;4956949;28;20065;-82
2022/12/04 04:27:23;;;;;;;82.25;26.35;;;;;;;;;;4961797;28;20134;-82
2022/12/04 04:29:50;;;;;;;72.78;24.83;;;;;;;;;;4971909;29;20051;-83
2022/12/04 04:32:37;;;;;;;79.00;24.38;;;;;;;;;;4961842;28;20409;-79
2022/12/04 04:35:09;;;;;;;69.20;23.90;;;;;;;;;;4968924;28;20050;-82
2022/12/04 04:37:42;;;;;;;73.88;25.05;;;;;;;;;;4954756;28;20448;-82
2022/12/04 04:40:17;;;;;;;71.93;23.80;;;;;;;;;;4952785;28;20432;-82
2022/12/04 04:42:44;;;;;;;83.18;24.63;;;;;;;;;;4949161;28;20052;-82
2022/12/04 04:45:20;;;;;;;78.55;25.95;;;;;;;;;;4940068;29;20063;-85
2022/12/04 04:47:50;;;;;;;83.22;25.40;;;;;;;;;;4957192;29;20063;-85
2022/12/04 04:50:17;;;;;;;75.40;24.45;;;;;;;;;;4955595;29;20083;-82
2022/12/04 04:52:46;;;;;;;88.97;25.08;;;;;;;;;;4961303;29;20047;-83
2022/12/04 04:55:13;;;;;;;88.32;27.73;;;;;;;;;;4954874;28;20059;-83
2022/12/04 04:57:40;;;;;;;80.43;25.80;;;;;;;;;;4977183;28;20388;-84
2022/12/04 05:00:07;;;;;;;84.10;25.33;;;;;;;;;;4954131;28;20138;-82
2022/12/04 05:02:33;;;;;;;78.72;25.55;;;;;;;;;;4952569;28;20059;-83
2022/12/04 05:05:00;;;;;;;89.18;26.13;;;;;;;;;;4956843;28;20062;-82
2022/12/04 05:07:26;;;;;;;86.03;25.67;;;;;;;;;;4953689;28;20063;-83
2022/12/04 05:09:52;;;;;;;93.82;27.00;;;;;;;;;;4951821;28;20111;-82
2022/12/04 05:12:19;;;;;;;91.40;26.88;;;;;;;;;;4952057;28;20043;-81
2022/12/04 05:14:49;;;;;;;90.75;27.15;;;;;;;;;;4953246;28;20053;-81
2022/12/04 05:17:15;;;;;;;91.82;27.17;;;;;;;;;;4953696;28;20472;-82
2022/12/04 05:20:03;;;;;;;85.25;26.85;;;;;;;;;;4952816;28;20546;-81
2022/12/04 05:22:30;;;;;;;87.90;26.73;;;;;;;;;;4952764;28;20058;-79
2022/12/04 05:24:57;;;;;;;87.78;26.13;;;;;;;;;;4951742;28;20058;-81
2022/12/04 05:27:24;;;;;;;96.13;27.88;;;;;;;;;;4952337;28;20522;-81
2022/12/04 05:29:51;;;;;;;86.90;25.92;;;;;;;;;;4952790;29;20051;-81
2022/12/04 05:32:18;;;;;;;92.55;26.88;;;;;;;;;;4953379;28;20051;-79
2022/12/04 05:34:48;;;;;;;88.57;26.85;;;;;;;;;;4966702;28;20051;-82
2022/12/04 05:37:15;;;;;;;101.60;27.50;;;;;;;;;;4952218;28;20075;-83
2022/12/04 05:39:42;;;;;;;90.00;26.83;;;;;;;;;;4959543;28;20161;-83
2022/12/04 05:42:08;;;;;;;98.70;27.50;;;;;;;;;;4958995;28;20048;-80
2022/12/04 05:44:34;;;;;;;103.38;29.38;;;;;;;;;;4953053;28;20089;-83
2022/12/04 05:47:01;;;;;;;90.93;27.35;;;;;;;;;;4956015;28;20054;-83
2022/12/04 05:49:28;;;;;;;101.60;28.45;;;;;;;;;;4956173;29;20291;-84
2022/12/04 05:51:55;;;;;;;84.45;26.77;;;;;;;;;;4955984;29;20053;-83
2022/12/04 05:54:21;;;;;;;100.40;29.92;;;;;;;;;;4955255;28;20039;-83
2022/12/04 05:56:48;;;;;;;93.00;28.10;;;;;;;;;;4955922;28;20134;-83
2022/12/04 05:59:14;;;;;;;101.43;27.98;;;;;;;;;;4954183;28;20448;-83
2022/12/04 06:01:41;;;;;;;92.13;29.20;;;;;;;;;;4955168;28;20055;-82
2022/12/04 06:04:08;;;;;;;92.70;27.30;;;;;;;;;;4954829;28;20043;-83
2022/12/04 06:06:34;;;;;;;93.70;27.08;;;;;;;;;;4969173;28;20512;-82
2022/12/04 06:09:05;;;;;;;94.55;28.98;;;;;;;;;;4958148;29;20055;-83
2022/12/04 06:11:33;;;;;;;94.75;28.48;;;;;;;;;;4973411;28;20070;-83
2022/12/04 06:14:00;;;;;;;93.82;28.40;;;;;;;;;;4975429;28;20035;-83
2022/12/04 06:16:27;;;;;;;96.15;28.42;;;;;;;;;;4978807;28;20035;-83
2022/12/04 06:18:56;;;;;;;92.70;28.92;;;;;;;;;;4976835;28;20082;-84
2022/12/04 06:21:24;;;;;;;99.90;29.50;;;;;;;;;;4964461;28;20043;-81
2022/12/04 06:23:50;;;;;;;101.55;30.05;;;;;;;;;;4955683;28;20082;-82
2022/12/04 06:26:17;;;;;;;103.20;30.48;;;;;;;;;;4956177;28;20476;-83
2022/12/04 06:28:43;;;;;;;111.78;31.50;;;;;;;;;;4958132;28;20054;-82
2022/12/04 06:31:11;;;;;;;105.30;31.02;;;;;;;;;;4957944;28;20047;-82
2022/12/04 06:33:38;;;;;;;108.97;31.52;;;;;;;;;;4956929;29;20078;-82
2022/12/04 06:36:08;;;;;;;109.00;32.08;;;;;;;;;;4965673;28;20121;-83
2022/12/04 06:38:34;;;;;;;111.38;31.67;;;;;;;;;;4965975;29;20099;-83
2022/12/04 06:41:02;;;;;;;105.10;30.73;;;;;;;;;;4967184;28;20086;-83
2022/12/04 06:43:29;;;;;;;115.20;32.03;;;;;;;;;;4947842;29;20055;-83
2022/12/04 06:46:02;;;;;;;121.57;34.17;;;;;;;;;;4943057;29;20043;-83
2022/12/04 06:48:32;;;;;;;109.47;32.58;;;;;;;;;;4942352;29;20044;-81
2022/12/04 06:50:59;;;;;;;113.18;32.92;;;;;;;;;;4940583;29;20052;-82
2022/12/04 06:53:26;;;;;;;112.97;32.03;;;;;;;;;;4938440;29;20055;-81
2022/12/04 06:55:53;;;;;;;111.25;32.60;;;;;;;;;;4940638;29;20051;-81
2022/12/04 06:58:20;;;;;;;124.32;33.58;;;;;;;;;;4949486;29;20044;-82
2022/12/04 07:00:46;;;;;;;115.05;32.28;;;;;;;;;;4955965;29;20092;-82
2022/12/04 07:03:13;;;;;;;120.18;33.42;;;;;;;;;;4941003;29;20080;-83
2022/12/04 07:05:39;;;;;;;106.57;32.70;;;;;;;;;;4941180;29;20290;-82
2022/12/04 07:08:05;;;;;;;130.90;35.13;;;;;;;;;;4941464;29;20055;-82
2022/12/04 07:10:33;;;;;;;113.88;32.42;;;;;;;;;;4940374;29;20052;-83
2022/12/04 07:13:00;;;;;;;111.18;33.10;;;;;;;;;;4950736;29;20063;-80
2022/12/04 07:15:26;;;;;;;115.68;32.63;;;;;;;;;;4954737;28;20055;-81
2022/12/04 07:17:53;;;;;;;116.10;32.38;;;;;;;;;;4962131;28;20106;-81
2022/12/04 07:20:19;;;;;;;109.53;32.40;;;;;;;;;;4950683;28;20087;-81
2022/12/04 07:22:46;;;;;;;110.90;33.10;;;;;;;;;;4947051;28;20081;-81
2022/12/04 07:25:12;;;;;;;111.00;32.47;;;;;;;;;;4949263;28;20055;-81
2022/12/04 07:27:40;;;;;;;112.20;32.47;;;;;;;;;;4952535;28;20482;-81
2022/12/04 07:30:08;;;;;;;114.72;32.92;;;;;;;;;;4954661;28;20763;-82
2022/12/04 07:32:40;;;;;;;112.50;34.25;;;;;;;;;;4965751;28;20119;-82
2022/12/04 07:35:07;;;;;;;110.38;32.53;;;;;;;;;;4953032;28;20054;-82
2022/12/04 07:37:34;;;;;;;121.70;33.42;;;;;;;;;;4963670;28;20427;-82
2022/12/04 07:40:01;;;;;;;114.70;32.60;;;;;;;;;;4959661;28;20051;-82
2022/12/04 07:42:27;;;;;;;109.53;31.52;;;;;;;;;;4954959;28;20406;-80
2022/12/04 07:44:54;;;;;;;111.72;32.78;;;;;;;;;;4964017;28;20508;-80
2022/12/04 07:47:20;;;;;;;105.55;32.03;;;;;;;;;;4951878;29;20630;-80
2022/12/04 07:49:47;;;;;;;112.10;33.65;;;;;;;;;;4959602;28;20051;-80
2022/12/04 07:52:13;;;;;;;107.90;31.20;;;;;;;;;;4950339;28;20047;-78
2022/12/04 07:54:39;;;;;;;100.60;31.90;;;;;;;;;;4953967;28;20125;-80
2022/12/04 07:57:06;;;;;;;108.93;31.98;;;;;;;;;;4956917;28;20078;-81
2022/12/04 07:59:32;;;;;;;109.72;32.55;;;;;;;;;;4950669;28;20066;-79
2022/12/04 08:01:58;;;;;;;107.18;32.05;;;;;;;;;;4945523;28;20074;-81
2022/12/04 08:04:25;;;;;;;101.55;30.33;;;;;;;;;;4950756;28;20558;-81
2022/12/04 08:06:51;;;;;;;101.22;32.13;;;;;;;;;;4949549;28;20526;-79
2022/12/04 08:09:18;;;;;;;108.15;33.20;;;;;;;;;;4948237;28;20059;-79
2022/12/04 08:11:44;;;;;;;103.10;31.33;;;;;;;;;;4949224;29;20047;-78
2022/12/04 08:14:11;;;;;;;106.10;31.88;;;;;;;;;;4951659;28;20050;-81
2022/12/04 08:16:37;;;;;;;109.40;31.48;;;;;;;;;;4950537;29;20658;-80
2022/12/04 08:19:04;;;;;;;106.93;31.42;;;;;;;;;;4951494;28;20134;-82
2022/12/04 08:21:31;;;;;;;100.55;31.20;;;;;;;;;;4958390;28;20097;-81
2022/12/04 08:23:58;;;;;;;96.22;32.33;;;;;;;;;;4950823;28;20051;-81
2022/12/04 08:26:25;;;;;;;103.93;32.20;;;;;;;;;;4950006;28;20053;-81
2022/12/04 08:28:52;;;;;;;94.28;30.45;;;;;;;;;;4949165;28;20051;-81
2022/12/04 08:31:19;;;;;;;91.35;29.58;;;;;;;;;;4949609;29;20043;-80
2022/12/04 08:33:46;;;;;;;88.10;30.42;;;;;;;;;;4935198;28;20595;-80
2022/12/04 08:36:14;;;;;;;87.57;28.65;;;;;;;;;;4947029;29;20047;-80
2022/12/04 08:38:40;;;;;;;90.80;29.92;;;;;;;;;;4954975;28;20062;-80
2022/12/04 08:41:09;;;;;;;84.25;28.85;;;;;;;;;;4954230;28;20059;-80
2022/12/04 08:43:35;;;;;;;93.50;30.50;;;;;;;;;;4938939;28;20079;-80
2022/12/04 08:46:03;;;;;;;96.55;30.38;;;;;;;;;;4952393;28;20055;-81
2022/12/04 08:48:30;;;;;;;86.50;29.73;;;;;;;;;;4935519;29;20209;-82
2022/12/04 08:50:56;;;;;;;98.93;31.30;;;;;;;;;;4946031;28;20046;-81
2022/12/04 08:53:23;;;;;;;99.25;31.90;;;;;;;;;;4958718;28;20134;-79
2022/12/04 08:55:50;;;;;;;105.90;33.53;;;;;;;;;;4944955;29;20155;-79
2022/12/04 08:58:16;;;;;;;101.88;32.67;;;;;;;;;;4947212;28;20051;-77
2022/12/04 09:00:43;;;;;;;94.82;31.63;;;;;;;;;;4953834;29;20058;-82
2022/12/04 09:03:13;;;;;;;94.85;30.63;;;;;;;;;;4950717;29;20058;-80
2022/12/04 09:05:40;;;;;;;101.35;32.25;;;;;;;;;;4954358;28;20051;-80
2022/12/04 09:08:07;;;;;;;101.63;31.33;;;;;;;;;;4953496;28;20051;-81
2022/12/04 09:10:34;;;;;;;95.88;30.70;;;;;;;;;;4955883;28;20059;-79
2022/12/04 09:13:00;;;;;;;92.20;30.17;;;;;;;;;;4951373;28;20051;-80
2022/12/04 09:15:27;;;;;;;95.97;30.88;;;;;;;;;;4953686;29;20051;-81
2022/12/04 09:17:53;;;;;;;102.78;31.55;;;;;;;;;;4953949;29;20114;-82
2022/12/04 09:20:20;;;;;;;97.45;30.75;;;;;;;;;;4953703;28;20062;-83
2022/12/04 09:22:46;;;;;;;98.22;31.63;;;;;;;;;;4951962;28;20062;-82
2022/12/04 09:25:29;;;;;;;91.07;30.75;;;;;;;;;;4953262;28;20127;-81
2022/12/04 09:27:56;;;;;;;90.97;30.45;;;;;;;;;;4950970;28;20093;-82
2022/12/04 09:30:22;;;;;;;95.85;31.80;;;;;;;;;;4953541;28;20051;-82
2022/12/04 09:32:48;;;;;;;89.55;30.52;;;;;;;;;;4954034;28;20409;-81
2022/12/04 09:35:15;;;;;;;94.00;30.85;;;;;;;;;;4954280;28;20527;-82
2022/12/04 09:37:41;;;;;;;95.13;31.00;;;;;;;;;;4958228;28;20063;-81
2022/12/04 09:40:18;;;;;;;88.97;30.77;;;;;;;;;;4953015;29;20070;-82
2022/12/04 09:42:48;;;;;;;92.88;32.30;;;;;;;;;;4943365;28;20408;-81
2022/12/04 09:45:16;;;;;;;88.50;30.00;;;;;;;;;;4953709;29;20059;-82
2022/12/04 09:47:47;;;;;;;92.40;31.23;;;;;;;;;;4953670;28;20295;-82
2022/12/04 09:50:21;;;;;;;92.97;31.75;;;;;;;;;;4953573;29;20062;-82
2022/12/04 09:52:50;;;;;;;93.22;31.27;;;;;;;;;;4953317;28;20501;-82
2022/12/04 09:55:22;;;;;;;90.13;30.98;;;;;;;;;;4955430;28;20055;-82
2022/12/04 09:57:50;;;;;;;90.65;30.33;;;;;;;;;;4952675;29;20199;-82
2022/12/04 10:00:17;;;;;;;97.05;32.60;;;;;;;;;;4959523;28;20059;-82
2022/12/04 10:02:47;;;;;;;96.13;33.08;;;;;;;;;;4951644;29;20054;-82
2022/12/04 10:05:18;;;;;;;83.80;30.33;;;;;;;;;;4952941;28;20086;-81
2022/12/04 10:07:51;;;;;;;93.70;31.38;;;;;;;;;;4953350;29;20071;-82
2022/12/04 10:10:25;;;;;;;86.53;30.70;;;;;;;;;;4952790;29;20054;-82
2022/12/04 10:13:18;;;;;;;88.50;30.95;;;;;;;;;;4951576;29;20052;-82
2022/12/04 10:16:08;;;;;;;90.18;32.20;;;;;;;;;;4950884;29;20047;-82
2022/12/04 10:18:46;;;;;;;94.53;30.27;;;;;;;;;;4950936;29;20055;-82
2022/12/04 10:21:12;;;;;;;96.88;31.30;;;;;;;;;;4953819;29;20130;-81
2022/12/04 10:23:39;;;;;;;94.32;32.65;;;;;;;;;;4953239;28;20401;-82
2022/12/04 10:26:10;;;;;;;99.63;33.85;;;;;;;;;;4953580;29;20059;-82
2022/12/04 10:28:38;;;;;;;91.28;32.17;;;;;;;;;;4954099;29;20151;-82
2022/12/04 10:31:06;;;;;;;99.82;32.85;;;;;;;;;;4953094;29;20138;-82
2022/12/04 10:33:40;;;;;;;102.43;34.10;;;;;;;;;;4956675;29;20051;-81
2022/12/04 10:36:14;;;;;;;94.43;32.27;;;;;;;;;;4961445;28;20178;-81
2022/12/04 10:38:41;;;;;;;93.88;31.55;;;;;;;;;;4963291;29;20136;-83
2022/12/04 10:41:23;;;;;;;103.15;34.53;;;;;;;;;;4957246;28;20566;-83
2022/12/04 10:43:50;;;;;;;101.40;32.40;;;;;;;;;;4944088;29;20342;-83
2022/12/04 10:46:26;;;;;;;98.47;31.88;;;;;;;;;;4941314;29;20055;-82
2022/12/04 10:49:08;;;;;;;94.53;33.08;;;;;;;;;;4941309;29;20123;-83
2022/12/04 10:51:37;;;;;;;101.90;33.70;;;;;;;;;;4940853;29;20193;-83
2022/12/04 10:54:24;;;;;;;100.60;34.22;;;;;;;;;;4939035;29;20058;-82
2022/12/04 10:56:51;;;;;;;97.60;33.03;;;;;;;;;;4940754;29;20040;-82
2022/12/04 10:59:18;;;;;;;98.10;33.80;;;;;;;;;;4939328;29;20044;-81
2022/12/04 11:01:45;;;;;;;100.82;32.83;;;;;;;;;;4935191;29;20468;-81
2022/12/04 11:04:20;;;;;;;92.88;33.63;;;;;;;;;;4935450;29;20103;-81
2022/12/04 11:06:48;;;;;;;105.30;33.92;;;;;;;;;;4934875;29;20061;-80
2022/12/04 11:09:22;;;;;;;98.75;34.75;;;;;;;;;;4935394;29;20063;-82
2022/12/04 11:11:49;;;;;;;92.50;32.22;;;;;;;;;;4936496;29;20111;-82
2022/12/04 11:14:17;;;;;;;101.30;34.80;;;;;;;;;;4935819;29;20051;-82
2022/12/04 11:16:47;;;;;;;94.28;31.45;;;;;;;;;;4939753;29;20482;-81
2022/12/04 11:19:20;;;;;;;100.55;33.28;;;;;;;;;;4937011;29;20143;-82
2022/12/04 11:21:49;;;;;;;100.68;33.22;;;;;;;;;;4936637;29;20227;-82
2022/12/04 11:24:20;;;;;;;95.85;33.55;;;;;;;;;;4935204;29;20058;-82
2022/12/04 11:26:47;;;;;;;93.22;34.08;;;;;;;;;;4937153;29;20070;-82
2022/12/04 11:29:15;;;;;;;99.22;34.25;;;;;;;;;;4936995;29;20475;-82
2022/12/04 11:31:46;;;;;;;105.40;34.70;;;;;;;;;;4939588;29;20048;-81
2022/12/04 11:34:18;;;;;;;97.60;34.00;;;;;;;;;;4936301;29;20479;-82
2022/12/04 11:36:49;;;;;;;101.88;33.05;;;;;;;;;;4935783;29;20063;-80
2022/12/04 11:39:17;;;;;;;101.78;35.22;;;;;;;;;;4936938;29;20062;-81
2022/12/04 11:41:44;;;;;;;104.47;33.13;;;;;;;;;;4949089;28;20052;-82
2022/12/04 11:44:27;;;;;;;96.72;32.92;;;;;;;;;;4951090;29;20055;-82
2022/12/04 11:46:55;;;;;;;90.88;32.28;;;;;;;;;;4956102;28;20627;-83
2022/12/04 11:49:22;;;;;;;98.70;34.67;;;;;;;;;;4953905;29;20109;-82
2022/12/04 11:52:01;;;;;;;97.28;33.08;;;;;;;;;;4953120;28;20082;-83
2022/12/04 11:54:32;;;;;;;102.85;34.08;;;;;;;;;;4952814;29;20491;-82
2022/12/04 11:57:08;;;;;;;102.63;34.33;;;;;;;;;;4954777;29;20054;-82
2022/12/04 11:59:34;;;;;;;;;;;;;;;;;;4954902;29;20059;-82
2022/12/04 12:02:00;;;;;;;116.15;35.65;;;;;;;;;;4955052;29;19982;-81
2022/12/04 12:04:45;;;;;;;109.80;35.35;;;;;;;;;;4953844;29;20568;-82
2022/12/04 12:07:11;;;;;;;107.00;35.40;;;;;;;;;;4954673;29;20504;-82
2022/12/04 12:09:57;;;;;;;107.60;34.58;;;;;;;;;;4954438;28;20088;-82
2022/12/04 12:12:42;;;;;;;122.07;37.13;;;;;;;;;;4954110;29;20047;-82
2022/12/04 12:15:27;;;;;;;83.28;26.02;;;;;;;;;;4954937;29;20534;-82
2022/12/04 12:17:56;;;;;;;112.68;35.97;;;;;;;;;;4955782;28;20063;-82
2022/12/04 12:20:29;;;;;;;110.72;35.67;;;;;;;;;;4954183;29;20423;-82
2022/12/04 12:23:14;;;;;;;114.00;37.58;;;;;;;;;;4953303;29;20058;-82
2022/12/04 12:25:44;;;;;;;108.97;36.23;;;;;;;;;;4956697;29;20066;-83
2022/12/04 12:28:20;;;;;;;108.55;35.25;;;;;;;;;;4954457;28;20239;-83
2022/12/04 12:30:46;;;;;;;113.40;36.53;;;;;;;;;;4955573;29;20043;-83
2022/12/04 12:33:21;;;;;;;116.78;37.33;;;;;;;;;;4954356;28;20043;-82
2022/12/04 12:35:57;;;;;;;120.70;36.40;;;;;;;;;;4955393;29;20134;-83
2022/12/04 12:38:23;;;;;;;;;;;;;;;;;;4955656;29;20133;-84
2022/12/04 12:40:54;;;;;;;114.88;35.25;;;;;;;;;;4952483;29;20487;-83
2022/12/04 12:43:31;;;;;;;105.40;35.30;;;;;;;;;;4953378;28;20065;-83
2022/12/04 12:46:10;;;;;;;114.93;37.13;;;;;;;;;;4955695;28;20062;-84
2022/12/04 12:48:59;;;;;;;118.68;37.58;;;;;;;;;;4955946;29;20062;-84
2022/12/04 12:51:28;;;;;;;113.72;37.53;;;;;;;;;;4951501;28;20119;-84
2022/12/04 12:54:27;;;;;;;115.53;37.47;;;;;;;;;;4953831;28;20059;-84
2022/12/04 12:56:56;;;;;;;112.95;38.35;;;;;;;;;;4961514;29;20456;-83
2022/12/04 12:59:25;;;;;;;121.07;39.65;;;;;;;;;;4974411;28;20047;-84
2022/12/04 13:01:57;;;;;;;117.53;37.67;;;;;;;;;;4975748;28;20111;-83
2022/12/04 13:04:26;;;;;;;126.18;39.78;;;;;;;;;;4975506;28;20047;-84
2022/12/04 13:07:05;;;;;;;114.28;37.83;;;;;;;;;;4973046;28;20039;-83
2022/12/04 13:09:34;;;;;;;117.63;37.92;;;;;;;;;;4955614;29;20437;-82
2022/12/04 13:12:07;;;;;;;116.72;37.55;;;;;;;;;;4953078;29;20113;-81
2022/12/04 13:14:34;;;;;;;114.90;38.88;;;;;;;;;;4951710;29;20050;-81
2022/12/04 13:17:07;;;;;;;107.40;37.15;;;;;;;;;;4953199;28;20054;-82
2022/12/04 13:19:42;;;;;;;116.18;37.53;;;;;;;;;;4952911;28;20053;-82
2022/12/04 13:22:27;;;;;;;114.82;38.05;;;;;;;;;;4949370;28;20401;-82
2022/12/04 13:25:12;;;;;;;123.32;38.20;;;;;;;;;;4952553;28;20066;-82
2022/12/04 13:27:51;;;;;;;111.10;37.75;;;;;;;;;;4952597;28;20055;-82
2022/12/04 13:30:18;;;;;;;124.38;37.92;;;;;;;;;;4954415;29;20424;-82
2022/12/04 13:32:47;;;;;;;124.63;38.67;;;;;;;;;;4953523;29;20199;-81
2022/12/04 13:35:32;;;;;;;123.07;40.05;;;;;;;;;;4953742;28;20058;-81
2022/12/04 13:38:16;;;;;;;115.68;38.25;;;;;;;;;;4952115;28;20082;-82
2022/12/04 13:40:46;;;;;;;120.88;39.40;;;;;;;;;;4953563;29;20077;-81
2022/12/04 13:43:24;;;;;;;119.38;39.97;;;;;;;;;;4941452;28;20066;-83
2022/12/04 13:45:51;;;;;;;127.43;41.08;;;;;;;;;;4933206;29;20427;-83
2022/12/04 13:48:28;;;;;;;127.88;41.20;;;;;;;;;;4934610;29;20051;-82
2022/12/04 13:51:13;;;;;;;124.75;41.83;;;;;;;;;;4932271;29;20086;-83
2022/12/04 13:53:41;;;;;;;95.97;30.08;;;;;;;;;;4933048;29;20099;-82
2022/12/04 13:56:22;;;;;;;119.63;39.33;;;;;;;;;;4931317;29;20063;-82
2022/12/04 13:58:57;;;;;;;123.30;41.38;;;;;;;;;;4933003;29;20047;-83
2022/12/04 14:01:27;;;;;;;132.95;40.75;;;;;;;;;;4933605;29;20110;-82
2022/12/04 14:03:56;;;;;;;130.90;41.05;;;;;;;;;;4933203;29;20460;-82
2022/12/04 14:06:30;;;;;;;136.13;41.58;;;;;;;;;;4932742;29;20058;-80
2022/12/04 14:08:58;;;;;;;128.05;42.50;;;;;;;;;;4947955;29;20063;-82
2022/12/04 14:11:25;;;;;;;136.00;43.55;;;;;;;;;;4951991;29;20044;-83
2022/12/04 14:13:56;;;;;;;130.68;42.17;;;;;;;;;;4952038;29;20049;-83
2022/12/04 14:16:37;;;;;;;129.50;42.55;;;;;;;;;;4952689;29;20052;-83
2022/12/04 14:19:04;;;;;;;130.23;40.85;;;;;;;;;;4951016;29;20143;-81
2022/12/04 14:21:40;;;;;;;121.90;40.22;;;;;;;;;;4934673;29;20138;-83
2022/12/04 14:24:16;;;;;;;129.35;41.58;;;;;;;;;;4937865;29;20044;-81
2022/12/04 14:26:50;;;;;;;137.85;42.83;;;;;;;;;;4937127;29;20048;-80
2022/12/04 14:29:40;;;;;;;127.20;41.97;;;;;;;;;;4938590;29;20051;-81
2022/12/04 14:32:08;;;;;;;127.90;41.63;;;;;;;;;;4937050;29;20050;-81
2022/12/04 14:34:36;;;;;;;135.73;42.33;;;;;;;;;;4937061;29;20297;-82
2022/12/04 14:37:04;;;;;;;136.55;42.28;;;;;;;;;;4935492;29;20051;-81
2022/12/04 14:39:32;;;;;;;129.27;42.08;;;;;;;;;;4938365;29;20059;-81
2022/12/04 14:42:25;;;;;;;123.40;40.60;;;;;;;;;;4953832;28;20062;-81
2022/12/04 14:44:53;;;;;;;136.30;42.75;;;;;;;;;;4933368;29;20052;-80